Saturday, October 20, 2018, 9:36 PM EDT
Back to Local

KBVY, Beverly Municipal Airport

Location: Danvers, MA, United States Lat: 42.583
Local Time: 9:36 PM EDT ( 1:36 GMT) Lon: -70.917
Time Zone: US/Eastern Elev: 108 ft

Show me the last for .
Show Decoded

2018-10-20 20:53 METAR KBVY 210053Z AUTO 25005KT 10SM CLR 11/06 A2956 RMK AO2 SLP004 T01110056 =
2018-10-20 19:53 METAR KBVY 202353Z AUTO 26005KT 10SM FEW100 11/06 A2956 RMK AO2 SLP006 T01110056
                 10178 20100 53006 =
2018-10-20 18:53 METAR KBVY 202253Z 24004KT 10SM FEW100 12/06 A2955 RMK AO2 SLP002 T01220061 =
2018-10-20 17:53 METAR KBVY 202153Z 26006KT 10SM FEW060 BKN080 14/06 A2954 RMK AO2 SLP999
                 T01390061 =
2018-10-20 16:53 METAR KBVY 202053Z 29007KT 10SM FEW040 SCT060 BKN080 16/07 A2954 RMK AO2 SLP000
                 T01560072 55009 =
2018-10-20 15:53 METAR KBVY 201953Z 23011KT 10SM SCT075 16/07 A2954 RMK AO2 SLP998 T01610072 =
2018-10-20 14:53 METAR KBVY 201853Z 26010KT 10SM FEW040 BKN060 17/07 A2956 RMK AO2 SLP004
                 T01720072 =
2018-10-20 13:53 METAR KBVY 201753Z 26011G19KT 10SM FEW040 OVC050 16/07 A2957 RMK AO2 SLP009
                 T01610072 10172 20139 56022 =
2018-10-20 12:53 METAR KBVY 201653Z 25012G19KT 10SM BKN040 16/08 A2959 RMK AO2 SLP016 T01610078 =
2018-10-20 11:53 METAR KBVY 201553Z 26011G20KT 10SM SCT029 BKN035 OVC047 16/08 A2961 RMK AO2 PK
                 WND 24026/1504 SLP024 T01610083 =
2018-10-20 11:39 METAR KBVY 201539Z 27011KT 10SM BKN030 BKN035 16/09 A2962 RMK AO2 PK WND
                 24026/1504 T01610089 =
2018-10-20 10:53 METAR KBVY 201453Z 24012G21KT 10SM BKN028 16/09 A2964 RMK AO2 SLP031 T01560089
                 58005 =
2018-10-20 09:53 METAR KBVY 201353Z 21012G20KT 10SM OVC029 14/08 A2965 RMK AO2 SLP034 T01440083 =
2018-10-20 09:42 METAR KBVY 201342Z 22013G20KT 10SM BKN029 OVC038 14/08 A2965 RMK AO2 T01440083 =
2018-10-20 08:53 METAR KBVY 201253Z 24012G22KT 10SM FEW041 SCT050 OVC060 14/08 A2966 RMK AO2
                 SLP038 T01390078 =
2018-10-20 07:53 METAR KBVY 201153Z 23013G21KT 10SM OVC065 14/07 A2965 RMK AO2 SLP036 60000
                 T01440067 10144 20133 58012 =
2018-10-20 06:53 METAR KBVY 201053Z 21011G19KT 10SM OVC065 14/07 A2965 RMK AO2 SLP036 T01440067 =
2018-10-20 05:53 METAR KBVY 200953Z AUTO 22011KT 10SM OVC080 14/07 A2969 RMK AO2 SLP050 T01390067
                 =
2018-10-20 04:53 METAR KBVY 200853Z AUTO 22010KT 10SM BKN095 OVC110 13/07 A2969 RMK AO2 RAB37E52
                 SLP048 P0000 60000 T01330072 56036 =
2018-10-20 03:53 METAR KBVY 200753Z AUTO 20011G21KT 10SM OVC110 13/07 A2972 RMK AO2 SLP061
                 T01330067 =
2018-10-20 02:53 METAR KBVY 200653Z AUTO 21009G18KT 10SM FEW120 13/06 A2975 RMK AO2 SLP071
                 T01330061 =
2018-10-20 01:53 METAR KBVY 200553Z AUTO 21012G19KT 10SM FEW120 13/06 A2979 RMK AO2 PK WND
                 21027/0523 SLP084 T01330056 10133 20111 56032 =
2018-10-20 00:53 METAR KBVY 200453Z AUTO 23014G24KT 10SM CLR 12/05 A2983 RMK AO2 SLP095 T01220050
                 401561006 =
2018-10-19 23:53 METAR KBVY 200353Z AUTO 21009G16KT 10SM CLR 12/03 A2984 RMK AO2 SLP100 T01170033
                 =
2018-10-19 22:53 METAR KBVY 200253Z AUTO 23008KT 10SM CLR 12/03 A2989 RMK AO2 SLP117 T01170033
                 56019 =
2018-10-19 21:53 METAR KBVY 200153Z AUTO 22012KT 10SM CLR 12/03 A2991 RMK AO2 SLP123 T01170033 =

Support USWX by starting your Amazon purchase here.